createdAt,value
2022-08-20T00:02:14.262Z,20.64
2022-08-20T00:05:23.758Z,20.61
2022-08-20T00:08:27.345Z,20.60
2022-08-20T00:11:33.739Z,20.54
2022-08-20T00:14:39.508Z,20.50
2022-08-20T00:17:43.181Z,20.48
2022-08-20T00:20:48.679Z,20.47
2022-08-20T00:23:53.034Z,20.47
2022-08-20T00:26:55.838Z,20.61
2022-08-20T00:29:59.168Z,20.85
2022-08-20T00:33:09.332Z,20.83
2022-08-20T00:36:12.489Z,20.70
2022-08-20T00:39:16.787Z,20.72
2022-08-20T00:42:19.806Z,20.65
2022-08-20T00:45:22.561Z,20.67
2022-08-20T00:48:30.584Z,20.68
2022-08-20T00:51:45.805Z,20.60
2022-08-20T00:54:52.594Z,20.59
2022-08-20T00:58:00.676Z,20.65
2022-08-20T01:01:06.235Z,20.61
2022-08-20T01:04:11.279Z,20.48
2022-08-20T01:07:14.532Z,20.46
2022-08-20T01:10:23.324Z,20.41
2022-08-20T01:13:27.876Z,20.37
2022-08-20T01:16:32.139Z,20.17
2022-08-20T01:19:42.686Z,20.29
2022-08-20T01:23:30.316Z,20.11
2022-08-20T01:26:39.783Z,20.01
2022-08-20T01:29:42.648Z,20.03
2022-08-20T01:32:45.713Z,20.13
2022-08-20T01:35:49.417Z,20.21
2022-08-20T01:38:54.331Z,20.23
2022-08-20T01:42:17.437Z,20.18
2022-08-20T01:45:20.757Z,20.22
2022-08-20T01:48:29.643Z,20.24
2022-08-20T01:51:32.856Z,20.22
2022-08-20T01:54:35.803Z,20.18
2022-08-20T01:57:39.275Z,20.13
2022-08-20T02:00:42.508Z,20.06
2022-08-20T02:03:45.599Z,20.08
2022-08-20T02:06:57.101Z,20.10
2022-08-20T02:10:01.313Z,20.11
2022-08-20T02:13:05.667Z,20.12
2022-08-20T02:16:08.801Z,20.13
2022-08-20T02:19:19.868Z,20.07
2022-08-20T02:22:25.480Z,20.15
2022-08-20T02:25:30.947Z,20.16
2022-08-20T02:28:34.827Z,20.27
2022-08-20T02:31:43.575Z,20.40
2022-08-20T02:35:04.989Z,20.46
2022-08-20T02:38:08.837Z,20.61
2022-08-20T02:41:12.464Z,20.62
2022-08-20T02:44:15.542Z,20.69
2022-08-20T02:47:18.365Z,20.76
2022-08-20T02:50:23.082Z,20.82
2022-08-20T02:53:27.583Z,20.61
2022-08-20T02:56:30.680Z,20.65
2022-08-20T02:59:33.739Z,20.47
2022-08-20T03:02:37.127Z,20.40
2022-08-20T03:05:41.965Z,20.36
2022-08-20T03:08:45.410Z,20.28
2022-08-20T03:11:48.226Z,20.14
2022-08-20T03:14:51.309Z,20.09
2022-08-20T03:17:54.209Z,20.01
2022-08-20T03:20:58.540Z,20.03
2022-08-20T03:24:01.359Z,20.05
2022-08-20T03:27:05.952Z,19.97
2022-08-20T03:30:12.696Z,19.90
2022-08-20T03:33:16.881Z,19.95
2022-08-20T03:36:22.261Z,19.94
2022-08-20T03:39:32.441Z,19.94
2022-08-20T03:42:35.321Z,19.82
2022-08-20T03:45:41.297Z,19.90
2022-08-20T03:48:44.571Z,19.94
2022-08-20T03:51:57.502Z,19.90
2022-08-20T03:55:01.196Z,19.90
2022-08-20T03:58:07.439Z,19.88
2022-08-20T04:01:46.411Z,19.77
2022-08-20T04:04:34.534Z,19.89
2022-08-20T04:07:37.944Z,19.93
2022-08-20T04:10:41.071Z,19.98
2022-08-20T04:13:43.880Z,20.02
2022-08-20T04:16:49.139Z,20.04
2022-08-20T04:19:51.850Z,20.00
2022-08-20T04:22:58.981Z,20.09
2022-08-20T04:26:02.467Z,20.09
2022-08-20T04:29:06.436Z,20.09
2022-08-20T04:32:09.784Z,20.16
2022-08-20T04:35:17.391Z,20.15
2022-08-20T04:38:22.546Z,20.13
2022-08-20T04:41:25.586Z,20.21
2022-08-20T04:44:28.763Z,20.27
2022-08-20T04:47:34.829Z,20.33
2022-08-20T04:50:39.264Z,20.34
2022-08-20T04:53:43.250Z,20.38
2022-08-20T04:56:48.280Z,20.44
2022-08-20T04:59:55.538Z,20.51
2022-08-20T05:03:00.676Z,20.60
2022-08-20T05:06:06.239Z,20.66
2022-08-20T05:09:08.990Z,20.70
2022-08-20T05:12:15.339Z,20.75
2022-08-20T05:15:18.243Z,20.69
2022-08-20T05:18:25.308Z,20.76
2022-08-20T05:21:28.392Z,20.79
2022-08-20T05:24:32.413Z,20.89
2022-08-20T05:27:35.809Z,20.93
2022-08-20T05:30:41.327Z,21.02
2022-08-20T05:33:44.100Z,21.04
2022-08-20T05:36:49.777Z,21.21
2022-08-20T05:39:52.762Z,21.28
2022-08-20T05:42:55.863Z,21.10
2022-08-20T05:45:58.717Z,20.83
2022-08-20T05:49:02.151Z,20.98
2022-08-20T05:52:05.602Z,21.04
2022-08-20T05:55:10.995Z,20.56
2022-08-20T05:58:18.910Z,20.59
2022-08-20T06:01:22.125Z,20.75
2022-08-20T06:04:28.040Z,20.67
2022-08-20T06:07:32.149Z,21.04
2022-08-20T06:10:36.989Z,21.26
2022-08-20T06:13:40.450Z,21.39
2022-08-20T06:16:56.314Z,21.33
2022-08-20T06:20:07.467Z,21.43
2022-08-20T06:23:10.673Z,21.19
2022-08-20T06:26:16.728Z,21.30
2022-08-20T06:29:34.780Z,21.37
2022-08-20T06:32:37.715Z,21.33
2022-08-20T06:35:41.119Z,21.35
2022-08-20T06:38:46.718Z,21.29
2022-08-20T06:41:51.586Z,21.31
2022-08-20T06:44:55.881Z,21.19
2022-08-20T06:48:01.255Z,21.02
2022-08-20T06:51:06.593Z,20.93
2022-08-20T06:54:09.631Z,21.08
2022-08-20T06:57:13.002Z,20.88
2022-08-20T07:00:19.126Z,21.15
2022-08-20T07:03:22.034Z,21.38
2022-08-20T07:06:26.496Z,21.60
2022-08-20T07:09:29.263Z,21.43
2022-08-20T07:12:33.221Z,21.12
2022-08-20T07:15:36.360Z,20.93
2022-08-20T07:18:40.674Z,20.90
2022-08-20T07:21:43.517Z,20.87
2022-08-20T07:24:49.192Z,20.80
2022-08-20T07:27:53.022Z,20.49
2022-08-20T07:31:16.035Z,20.48
2022-08-20T07:34:19.578Z,20.64
2022-08-20T07:37:23.977Z,20.70
2022-08-20T07:40:29.943Z,20.53
2022-08-20T07:43:33.464Z,20.54
2022-08-20T07:46:36.265Z,20.14
2022-08-20T07:49:40.181Z,19.93
2022-08-20T07:52:43.114Z,20.12
2022-08-20T07:55:58.732Z,20.17
2022-08-20T07:59:02.422Z,20.00
2022-08-20T08:02:05.838Z,19.85
2022-08-20T08:05:09.623Z,19.76
2022-08-20T08:08:15.724Z,19.70
2022-08-20T08:11:19.591Z,19.91
2022-08-20T08:14:27.022Z,19.80
2022-08-20T08:17:31.743Z,19.85
2022-08-20T08:20:38.721Z,19.86
2022-08-20T08:23:51.229Z,19.89
2022-08-20T08:26:54.124Z,19.89
2022-08-20T08:29:57.195Z,20.01
2022-08-20T08:33:18.865Z,20.14
2022-08-20T08:36:21.997Z,20.26
2022-08-20T08:39:25.477Z,20.36
2022-08-20T08:42:44.129Z,20.41
2022-08-20T08:45:58.542Z,20.35
2022-08-20T08:49:04.872Z,20.37
2022-08-20T08:52:12.595Z,20.52
2022-08-20T08:55:20.590Z,20.48
2022-08-20T08:58:23.772Z,20.50
2022-08-20T09:01:55.574Z,20.48
2022-08-20T09:04:51.760Z,20.46
2022-08-20T09:07:55.708Z,20.44
2022-08-20T09:11:06.966Z,20.35
2022-08-20T09:14:11.099Z,20.34
2022-08-20T09:17:14.959Z,20.47
2022-08-20T09:20:18.563Z,20.31
2022-08-20T09:23:21.310Z,20.39
2022-08-20T09:26:24.378Z,20.29
2022-08-20T09:29:33.080Z,20.41
2022-08-20T09:32:36.671Z,20.45
2022-08-20T09:35:40.458Z,20.54
2022-08-20T09:38:43.424Z,20.56
2022-08-20T09:41:46.185Z,20.57
2022-08-20T09:44:49.363Z,20.53
2022-08-20T09:47:56.415Z,20.64
2022-08-20T09:51:00.564Z,20.64
2022-08-20T09:54:03.469Z,20.64
2022-08-20T09:57:07.898Z,20.62
2022-08-20T10:00:12.657Z,20.65
2022-08-20T10:03:15.412Z,20.63
2022-08-20T10:06:20.410Z,20.64
2022-08-20T10:09:23.689Z,20.67
2022-08-20T10:12:27.386Z,20.66
2022-08-20T10:15:30.705Z,20.57
2022-08-20T10:18:36.076Z,20.51
2022-08-20T10:21:39.641Z,20.45
2022-08-20T10:24:43.157Z,20.34
2022-08-20T10:27:46.157Z,20.24
2022-08-20T10:30:49.181Z,20.22
2022-08-20T10:33:51.944Z,20.33
2022-08-20T10:36:55.060Z,20.62
2022-08-20T10:39:57.965Z,20.54
2022-08-20T10:43:01.157Z,20.38
2022-08-20T10:46:04.070Z,20.41
2022-08-20T10:49:07.160Z,20.37
2022-08-20T10:52:09.981Z,20.54
2022-08-20T10:55:13.168Z,20.70
2022-08-20T10:58:16.390Z,20.95
2022-08-20T11:01:32.935Z,21.24
2022-08-20T11:04:37.217Z,21.63
2022-08-20T11:07:55.228Z,21.97
2022-08-20T11:10:59.407Z,22.00
2022-08-20T11:14:02.455Z,22.02
2022-08-20T11:17:05.728Z,21.86
2022-08-20T11:20:10.636Z,21.72
2022-08-20T11:23:13.449Z,21.44
2022-08-20T11:26:24.069Z,21.73
2022-08-20T11:29:29.977Z,21.65
2022-08-20T11:32:35.752Z,21.89
2022-08-20T11:35:48.439Z,22.21
2022-08-20T11:38:53.533Z,22.84
2022-08-20T11:41:56.294Z,22.82
2022-08-20T11:44:59.352Z,22.28
2022-08-20T11:48:02.176Z,23.28
2022-08-20T11:51:05.395Z,23.73
2022-08-20T11:54:08.146Z,24.31
2022-08-20T11:57:11.454Z,23.94
2022-08-20T12:00:18.475Z,24.25
2022-08-20T12:03:21.591Z,24.90
2022-08-20T12:06:24.822Z,25.22
2022-08-20T12:09:29.925Z,24.03
2022-08-20T12:12:33.237Z,24.77
2022-08-20T12:15:37.678Z,24.93
2022-08-20T12:18:40.614Z,24.95
2022-08-20T12:21:43.755Z,25.37
2022-08-20T12:24:46.595Z,25.09
2022-08-20T12:27:49.967Z,24.49
2022-08-20T12:30:52.784Z,24.73
2022-08-20T12:33:55.829Z,25.31
2022-08-20T12:37:12.870Z,25.06
2022-08-20T12:40:30.555Z,25.33
2022-08-20T12:43:35.777Z,25.16
2022-08-20T12:46:39.071Z,24.59
2022-08-20T12:49:45.687Z,24.61
2022-08-20T12:52:49.717Z,24.81
2022-08-20T12:55:52.516Z,24.46
2022-08-20T12:58:56.082Z,23.84
2022-08-20T13:01:59.066Z,24.29
2022-08-20T13:05:17.749Z,23.43
2022-08-20T13:08:20.552Z,24.41
2022-08-20T13:11:23.633Z,24.25
2022-08-20T13:14:28.154Z,24.01
2022-08-20T13:17:38.919Z,24.41
2022-08-20T13:20:42.528Z,24.90
2022-08-20T13:23:45.583Z,25.35
2022-08-20T13:26:49.237Z,23.35
2022-08-20T13:29:58.914Z,25.11
2022-08-20T13:33:02.499Z,25.51
2022-08-20T13:36:05.999Z,25.77
2022-08-20T13:39:09.044Z,25.99
2022-08-20T13:42:13.232Z,25.69
2022-08-20T13:45:16.104Z,25.53
2022-08-20T13:48:19.121Z,24.86
2022-08-20T13:51:21.878Z,24.51
2022-08-20T13:54:29.543Z,24.97
2022-08-20T13:57:33.732Z,24.57
2022-08-20T14:00:37.459Z,24.20
2022-08-20T14:03:40.600Z,23.78
2022-08-20T14:06:45.625Z,23.94
2022-08-20T14:09:51.758Z,24.44
2022-08-20T14:12:54.525Z,24.28
2022-08-20T14:15:57.680Z,24.08
2022-08-20T14:22:03.218Z,23.55
2022-08-20T14:25:10.459Z,23.45
2022-08-20T14:28:24.284Z,23.02
2022-08-20T14:31:27.314Z,22.87
2022-08-20T14:34:30.602Z,23.25
2022-08-20T14:37:36.331Z,23.78
2022-08-20T14:40:39.472Z,23.01
2022-08-20T14:43:42.258Z,22.89
2022-08-20T14:46:46.505Z,22.77
2022-08-20T14:49:51.901Z,23.14
2022-08-20T14:52:55.912Z,23.30
2022-08-20T14:55:58.840Z,22.79
2022-08-20T14:59:01.876Z,23.61
2022-08-20T15:02:06.559Z,23.19
2022-08-20T15:05:09.899Z,23.48
2022-08-20T15:08:13.209Z,23.84
2022-08-20T15:11:17.050Z,23.80
2022-08-20T15:14:19.850Z,23.89
2022-08-20T15:17:29.219Z,23.42
2022-08-20T15:20:34.616Z,23.72
2022-08-20T15:23:38.008Z,23.68
2022-08-20T15:26:41.515Z,23.83
2022-08-20T15:29:45.204Z,23.74
2022-08-20T15:32:54.178Z,23.73
2022-08-20T15:35:57.802Z,23.64
2022-08-20T15:39:00.578Z,23.58
2022-08-20T15:42:04.234Z,23.61
2022-08-20T15:45:08.886Z,23.55
2022-08-20T15:48:19.299Z,23.43
2022-08-20T15:51:27.634Z,23.37
2022-08-20T15:54:30.809Z,23.26
2022-08-20T15:58:07.145Z,23.24
2022-08-20T16:01:24.738Z,23.23
2022-08-20T16:04:50.896Z,23.04
2022-08-20T16:08:16.624Z,23.03
2022-08-20T16:14:27.614Z,22.97
2022-08-20T16:17:37.049Z,22.80
2022-08-20T16:20:43.101Z,22.56
2022-08-20T16:23:51.203Z,22.66
2022-08-20T16:27:06.112Z,22.31
2022-08-20T16:30:20.831Z,22.57
2022-08-20T16:33:44.756Z,22.45
2022-08-20T16:37:23.857Z,22.14
2022-08-20T16:40:30.042Z,21.99
2022-08-20T16:43:37.179Z,21.89
2022-08-20T16:46:47.576Z,21.88
2022-08-20T16:50:00.551Z,21.86
2022-08-20T16:53:03.403Z,21.91
2022-08-20T16:56:08.380Z,21.76
2022-08-20T16:59:27.254Z,21.82
2022-08-20T17:02:30.674Z,21.86
2022-08-20T17:05:40.494Z,21.94
2022-08-20T17:08:49.787Z,21.95
2022-08-20T17:11:52.648Z,22.06
2022-08-20T17:14:57.503Z,22.08
2022-08-20T17:18:23.651Z,22.10
2022-08-20T17:21:29.139Z,22.00
2022-08-20T17:24:33.445Z,22.00
2022-08-20T17:27:39.395Z,21.96
2022-08-20T17:30:42.469Z,21.88
2022-08-20T17:33:46.304Z,21.86
2022-08-20T17:36:56.321Z,21.89
2022-08-20T17:40:17.905Z,21.83
2022-08-20T17:43:33.691Z,21.78
2022-08-20T17:46:43.950Z,21.73
2022-08-20T17:50:11.577Z,21.69
2022-08-20T17:53:23.775Z,21.61
2022-08-20T17:56:34.552Z,21.50
2022-08-20T18:00:01.175Z,21.39
2022-08-20T18:03:24.040Z,21.32
2022-08-20T18:06:37.309Z,21.25
2022-08-20T18:10:04.732Z,21.22
2022-08-20T18:13:32.563Z,21.22
2022-08-20T18:16:50.107Z,21.16
2022-08-20T18:20:06.757Z,21.14
2022-08-20T18:23:15.387Z,21.02
2022-08-20T18:26:30.051Z,20.96
2022-08-20T18:29:37.215Z,20.92
2022-08-20T18:32:40.355Z,20.92
2022-08-20T18:35:45.774Z,20.75
2022-08-20T18:39:06.285Z,20.71
2022-08-20T18:42:17.833Z,20.74
2022-08-20T18:45:32.932Z,20.80
2022-08-20T18:48:36.798Z,20.72
2022-08-20T18:51:50.191Z,20.82
2022-08-20T18:54:55.891Z,20.86
2022-08-20T18:58:08.129Z,20.75
2022-08-20T19:01:12.930Z,20.59
2022-08-20T19:04:32.038Z,20.54
2022-08-20T19:07:48.633Z,20.34
2022-08-20T19:11:01.195Z,20.52
2022-08-20T19:14:38.951Z,20.54
2022-08-20T19:18:04.911Z,20.57
2022-08-20T19:21:15.868Z,20.58
2022-08-20T19:24:27.322Z,20.52
2022-08-20T19:27:30.374Z,20.56
2022-08-20T19:30:40.020Z,20.56
2022-08-20T19:33:46.688Z,20.65
2022-08-20T19:37:34.860Z,20.60
2022-08-20T19:40:39.182Z,20.58
2022-08-20T19:43:43.799Z,20.36
2022-08-20T19:46:47.459Z,20.36
2022-08-20T19:50:12.270Z,20.33
2022-08-20T19:53:29.996Z,20.25
2022-08-20T19:56:41.037Z,20.24
2022-08-20T19:59:54.612Z,20.31
2022-08-20T20:03:08.989Z,20.29
2022-08-20T20:06:19.445Z,20.15
2022-08-20T20:09:25.559Z,20.01
2022-08-20T20:12:29.081Z,19.96
2022-08-20T20:15:31.977Z,20.00
2022-08-20T20:18:41.785Z,19.99
2022-08-20T20:22:19.267Z,19.89
2022-08-20T20:25:27.535Z,19.91
2022-08-20T20:28:53.121Z,19.91
2022-08-20T20:31:58.880Z,19.70
2022-08-20T20:35:05.487Z,19.64
2022-08-20T20:38:11.809Z,19.68
2022-08-20T20:41:24.417Z,19.60
2022-08-20T20:44:37.065Z,19.58
2022-08-20T20:47:40.329Z,19.62
2022-08-20T20:50:43.470Z,19.55
2022-08-20T20:53:54.313Z,19.60
2022-08-20T20:57:09.014Z,19.33
2022-08-20T21:00:14.826Z,19.39
2022-08-20T21:03:18.581Z,19.49
2022-08-20T21:06:24.914Z,19.40
2022-08-20T21:09:27.993Z,19.40
2022-08-20T21:12:30.792Z,19.42
2022-08-20T21:15:35.257Z,19.43
2022-08-20T21:18:38.125Z,19.32
2022-08-20T21:21:41.762Z,19.41
2022-08-20T21:24:45.778Z,19.35
2022-08-20T21:27:50.890Z,19.47
2022-08-20T21:30:58.352Z,19.47
2022-08-20T21:34:02.060Z,19.35
2022-08-20T21:37:05.229Z,19.29
2022-08-20T21:40:10.202Z,19.17
2022-08-20T21:43:15.540Z,19.07
2022-08-20T21:46:24.871Z,19.24
2022-08-20T21:49:29.086Z,19.15
2022-08-20T21:52:32.922Z,19.12
2022-08-20T21:55:39.850Z,18.95
2022-08-20T21:58:46.713Z,18.93
2022-08-20T22:01:51.995Z,18.97
2022-08-20T22:04:55.463Z,19.00
2022-08-20T22:07:58.278Z,18.91
2022-08-20T22:11:03.269Z,18.96
2022-08-20T22:14:07.876Z,18.95
2022-08-20T22:17:11.021Z,18.91
2022-08-20T22:20:14.108Z,18.96
2022-08-20T22:23:17.169Z,19.06
2022-08-20T22:26:20.855Z,18.87
2022-08-20T22:29:24.840Z,18.97
2022-08-20T22:32:51.585Z,18.91
2022-08-20T22:35:54.623Z,18.84
2022-08-20T22:38:57.782Z,18.89
2022-08-20T22:42:02.509Z,18.97
2022-08-20T22:45:05.627Z,18.85
2022-08-20T22:48:20.234Z,18.63
2022-08-20T22:51:35.059Z,18.67
2022-08-20T22:54:39.757Z,18.79
2022-08-20T22:57:47.504Z,18.75
2022-08-20T23:00:51.540Z,18.59
2022-08-20T23:04:17.854Z,18.59
2022-08-20T23:07:21.178Z,18.54
2022-08-20T23:10:26.721Z,18.55
2022-08-20T23:13:30.284Z,18.48
2022-08-20T23:16:33.338Z,18.43
2022-08-20T23:19:38.159Z,18.44
2022-08-20T23:22:40.945Z,18.43
2022-08-20T23:25:43.998Z,18.42
2022-08-20T23:28:47.013Z,18.52
2022-08-20T23:31:50.867Z,18.60
2022-08-20T23:34:53.646Z,18.35
2022-08-20T23:37:58.248Z,18.36
2022-08-20T23:41:00.973Z,18.32
2022-08-20T23:44:04.417Z,18.33
2022-08-20T23:47:07.514Z,18.26
2022-08-20T23:50:13.926Z,18.25
2022-08-20T23:53:16.794Z,18.22
2022-08-20T23:56:19.839Z,18.25
2022-08-20T23:59:24.246Z,18.25
